createdAt,value
2022-09-12T00:01:21.210Z,10.12
2022-09-12T00:03:52.711Z,10.06
2022-09-12T00:06:34.109Z,10.05
2022-09-12T00:09:04.314Z,10.08
2022-09-12T00:11:31.407Z,10.11
2022-09-12T00:14:00.470Z,10.11
2022-09-12T00:16:29.560Z,10.10
2022-09-12T00:18:56.286Z,10.07
2022-09-12T00:21:23.578Z,10.10
2022-09-12T00:23:53.906Z,10.09
2022-09-12T00:26:23.659Z,10.07
2022-09-12T00:28:50.604Z,10.04
2022-09-12T00:31:24.213Z,10.03
2022-09-12T00:33:51.452Z,10.07
2022-09-12T00:36:21.428Z,10.07
2022-09-12T00:38:48.450Z,10.04
2022-09-12T00:41:28.783Z,10.04
2022-09-12T00:44:01.335Z,10.08
2022-09-12T00:46:40.538Z,10.08
2022-09-12T00:49:21.834Z,10.11
2022-09-12T00:52:06.462Z,10.14
2022-09-12T00:54:53.544Z,10.14
2022-09-12T00:57:25.344Z,10.14
2022-09-12T01:00:04.605Z,10.12
2022-09-12T01:02:31.334Z,10.11
2022-09-12T01:04:58.487Z,10.12
2022-09-12T01:07:25.171Z,10.13
2022-09-12T01:09:52.227Z,10.12
2022-09-12T01:12:29.546Z,10.12
2022-09-12T01:14:56.153Z,10.11
2022-09-12T01:17:29.655Z,10.08
2022-09-12T01:20:08.017Z,9.94
2022-09-12T01:23:15.471Z,9.82
2022-09-12T01:26:15.596Z,9.82
2022-09-12T01:28:56.419Z,9.83
2022-09-12T01:31:44.371Z,9.84
2022-09-12T01:34:28.309Z,9.85
2022-09-12T01:37:12.986Z,9.85
2022-09-12T01:40:02.236Z,9.85
2022-09-12T01:42:40.994Z,9.86
2022-09-12T01:45:20.547Z,9.84
2022-09-12T01:47:54.295Z,9.85
2022-09-12T01:50:38.103Z,9.81
2022-09-12T01:53:14.675Z,9.78
2022-09-12T01:55:51.414Z,9.68
2022-09-12T01:58:27.143Z,9.63
2022-09-12T02:01:09.327Z,9.63
2022-09-12T02:03:45.152Z,9.63
2022-09-12T02:06:21.024Z,9.63
2022-09-12T02:08:55.153Z,9.61
2022-09-12T02:11:22.253Z,9.55
2022-09-12T02:14:01.917Z,9.54
2022-09-12T02:16:34.628Z,9.55
2022-09-12T02:19:10.415Z,9.58
2022-09-12T02:21:42.296Z,9.58
2022-09-12T02:24:12.603Z,9.55
2022-09-12T02:26:51.038Z,9.52
2022-09-12T02:29:17.833Z,9.52
2022-09-12T02:31:50.009Z,9.53
2022-09-12T02:34:33.242Z,9.54
2022-09-12T02:37:05.997Z,9.56
2022-09-12T02:39:32.970Z,9.55
2022-09-12T02:42:01.943Z,9.54
2022-09-12T02:44:30.795Z,9.52
2022-09-12T02:47:04.899Z,9.48
2022-09-12T02:49:31.670Z,9.45
2022-09-12T02:52:00.066Z,9.42
2022-09-12T02:54:28.023Z,9.46
2022-09-12T02:56:54.703Z,9.48
2022-09-12T02:59:24.103Z,9.51
2022-09-12T03:02:15.550Z,9.52
2022-09-12T03:05:03.505Z,9.53
2022-09-12T03:07:39.966Z,9.49
2022-09-12T03:10:28.920Z,9.48
2022-09-12T03:13:20.573Z,9.53
2022-09-12T03:15:47.200Z,9.59
2022-09-12T03:18:14.650Z,9.63
2022-09-12T03:21:09.890Z,9.63
2022-09-12T03:23:36.819Z,9.64
2022-09-12T03:26:11.059Z,9.65
2022-09-12T03:28:39.616Z,9.62
2022-09-12T03:31:14.863Z,9.62
2022-09-12T03:33:41.907Z,9.60
2022-09-12T03:36:26.955Z,9.53
2022-09-12T03:38:53.691Z,9.53
2022-09-12T03:41:21.314Z,9.52
2022-09-12T03:43:48.513Z,9.56
2022-09-12T03:46:15.159Z,9.55
2022-09-12T03:48:41.993Z,9.55
2022-09-12T03:51:10.567Z,9.56
2022-09-12T03:53:37.329Z,9.53
2022-09-12T03:56:13.527Z,9.47
2022-09-12T03:58:40.715Z,9.44
2022-09-12T04:01:12.911Z,9.44
2022-09-12T04:03:48.358Z,9.45
2022-09-12T04:06:18.255Z,9.46
2022-09-12T04:08:51.581Z,9.42
2022-09-12T04:11:19.912Z,9.41
2022-09-12T04:13:47.626Z,9.41
2022-09-12T04:16:15.772Z,9.41
2022-09-12T04:18:42.698Z,9.43
2022-09-12T04:21:12.340Z,9.45
2022-09-12T04:23:39.222Z,9.45
2022-09-12T04:26:13.788Z,9.43
2022-09-12T04:28:41.395Z,9.36
2022-09-12T04:31:12.314Z,9.29
2022-09-12T04:33:39.519Z,9.28
2022-09-12T04:36:09.083Z,9.27
2022-09-12T04:38:36.866Z,9.22
2022-09-12T04:41:22.911Z,9.18
2022-09-12T04:43:54.700Z,9.20
2022-09-12T04:46:21.652Z,9.21
2022-09-12T04:48:52.281Z,9.24
2022-09-12T04:51:31.036Z,9.24
2022-09-12T04:54:06.555Z,9.24
2022-09-12T04:56:36.529Z,9.26
2022-09-12T04:59:03.375Z,9.28
2022-09-12T05:01:30.457Z,9.33
2022-09-12T05:03:58.928Z,9.34
2022-09-12T05:06:34.959Z,9.33
2022-09-12T05:09:06.606Z,9.35
2022-09-12T05:12:02.541Z,9.38
2022-09-12T05:14:25.524Z,9.42
2022-09-12T05:16:52.162Z,9.46
2022-09-12T05:19:18.814Z,9.49
2022-09-12T05:21:45.434Z,9.51
2022-09-12T05:24:12.202Z,9.55
2022-09-12T05:26:41.901Z,9.57
2022-09-12T05:29:08.503Z,9.60
2022-09-12T05:31:35.597Z,9.62
2022-09-12T05:34:06.098Z,9.62
2022-09-12T05:36:33.333Z,9.62
2022-09-12T05:39:00.567Z,9.64
2022-09-12T05:41:30.903Z,9.67
2022-09-12T05:43:59.986Z,9.67
2022-09-12T05:46:28.813Z,9.70
2022-09-12T05:48:56.779Z,9.71
2022-09-12T05:51:28.568Z,9.73
2022-09-12T05:54:00.097Z,9.78
2022-09-12T05:56:32.310Z,9.82
2022-09-12T05:59:04.792Z,9.87
2022-09-12T06:01:33.759Z,9.93
2022-09-12T06:04:03.556Z,10.00
2022-09-12T06:06:31.878Z,10.09
2022-09-12T06:09:04.208Z,10.15
2022-09-12T06:11:33.398Z,10.21
2022-09-12T06:14:03.612Z,10.26
2022-09-12T06:16:32.455Z,10.32
2022-09-12T06:19:04.786Z,10.40
2022-09-12T06:21:32.010Z,10.48
2022-09-12T06:23:59.010Z,10.56
2022-09-12T06:26:26.374Z,10.65
2022-09-12T06:28:54.893Z,10.76
2022-09-12T06:31:25.848Z,10.87
2022-09-12T06:33:56.833Z,10.98
2022-09-12T06:36:28.680Z,11.10
2022-09-12T06:38:59.454Z,11.24
2022-09-12T06:41:26.930Z,11.42
2022-09-12T06:43:57.115Z,11.55
2022-09-12T06:46:25.205Z,11.70
2022-09-12T06:48:52.178Z,11.84
2022-09-12T06:51:22.326Z,11.97
2022-09-12T06:53:50.359Z,12.07
2022-09-12T06:56:21.976Z,12.18
2022-09-12T06:58:50.558Z,12.26
2022-09-12T07:01:22.309Z,12.35
2022-09-12T07:03:55.918Z,12.42
2022-09-12T07:06:27.454Z,12.49
2022-09-12T07:08:54.022Z,12.55
2022-09-12T07:11:27.311Z,12.63
2022-09-12T07:13:56.378Z,12.69
2022-09-12T07:16:23.909Z,12.77
2022-09-12T07:18:55.475Z,12.84
2022-09-12T07:21:22.803Z,12.91
2022-09-12T07:23:53.271Z,12.97
2022-09-12T07:26:19.894Z,13.04
2022-09-12T07:28:51.578Z,13.18
2022-09-12T07:31:19.553Z,13.32
2022-09-12T07:33:48.221Z,13.42
2022-09-12T07:36:22.565Z,13.51
2022-09-12T07:38:57.241Z,13.59
2022-09-12T07:41:27.049Z,13.64
2022-09-12T07:43:58.280Z,13.74
2022-09-12T07:46:26.617Z,13.87
2022-09-12T07:48:54.970Z,13.99
2022-09-12T07:51:22.573Z,14.13
2022-09-12T07:53:49.353Z,14.27
2022-09-12T07:56:17.358Z,14.38
2022-09-12T07:58:46.557Z,14.54
2022-09-12T08:01:23.189Z,14.73
2022-09-12T08:03:55.841Z,14.98
2022-09-12T08:06:26.385Z,15.38
2022-09-12T08:08:55.103Z,16.01
2022-09-12T08:11:23.486Z,16.68
2022-09-12T08:13:55.367Z,17.46
2022-09-12T08:16:24.917Z,18.04
2022-09-12T08:18:51.776Z,18.59
2022-09-12T08:21:24.096Z,19.13
2022-09-12T08:23:56.495Z,19.43
2022-09-12T08:26:23.602Z,19.62
2022-09-12T08:28:50.802Z,19.83
2022-09-12T08:31:20.417Z,20.09
2022-09-12T08:33:47.249Z,20.16
2022-09-12T08:36:20.417Z,20.07
2022-09-12T08:38:49.127Z,19.98
2022-09-12T08:41:18.439Z,19.98
2022-09-12T08:44:09.793Z,19.79
2022-09-12T08:46:44.017Z,19.50
2022-09-12T08:49:15.037Z,19.29
2022-09-12T08:51:43.214Z,19.07
2022-09-12T08:54:29.259Z,19.03
2022-09-12T08:57:01.768Z,19.31
2022-09-12T08:59:39.774Z,19.69
2022-09-12T09:02:24.820Z,20.05
2022-09-12T09:05:22.637Z,20.34
2022-09-12T09:08:01.183Z,20.45
2022-09-12T09:10:48.967Z,20.50
2022-09-12T09:13:52.572Z,20.80
2022-09-12T09:16:32.405Z,21.00
2022-09-12T09:19:04.216Z,21.14
2022-09-12T09:21:46.862Z,21.26
2022-09-12T09:24:18.494Z,21.34
2022-09-12T09:26:56.565Z,21.33
2022-09-12T09:29:35.010Z,21.27
2022-09-12T09:32:09.649Z,21.12
2022-09-12T09:34:36.267Z,20.93
2022-09-12T09:37:20.918Z,20.74
2022-09-12T09:40:27.533Z,20.50
2022-09-12T09:43:09.199Z,20.25
2022-09-12T09:45:38.119Z,20.09
2022-09-12T09:48:10.621Z,19.95
2022-09-12T09:50:38.201Z,19.81
2022-09-12T09:53:09.323Z,19.67
2022-09-12T09:55:43.596Z,19.55
2022-09-12T09:58:10.221Z,19.53
2022-09-12T10:00:38.629Z,19.49
2022-09-12T10:03:13.987Z,19.44
2022-09-12T10:06:22.520Z,19.48
2022-09-12T10:08:50.382Z,19.52
2022-09-12T10:11:20.998Z,19.63
2022-09-12T10:13:51.475Z,19.74
2022-09-12T10:16:25.747Z,19.77
2022-09-12T10:18:53.915Z,19.83
2022-09-12T10:21:36.307Z,19.76
2022-09-12T10:24:20.458Z,19.60
2022-09-12T10:26:57.225Z,19.57
2022-09-12T10:29:33.774Z,19.63
2022-09-12T10:32:05.002Z,19.74
2022-09-12T10:34:37.852Z,19.87
2022-09-12T10:37:27.641Z,20.00
2022-09-12T10:39:57.878Z,20.02
2022-09-12T10:42:43.011Z,20.00
2022-09-12T10:45:29.859Z,20.02
2022-09-12T10:48:02.093Z,20.03
2022-09-12T10:50:42.296Z,20.07
2022-09-12T10:53:25.502Z,20.08
2022-09-12T10:56:07.922Z,20.05
2022-09-12T10:58:40.543Z,20.06
2022-09-12T11:01:36.430Z,20.06
2022-09-12T11:04:33.671Z,20.11
2022-09-12T11:07:37.055Z,20.18
2022-09-12T11:10:47.850Z,20.29
2022-09-12T11:13:14.470Z,20.40
2022-09-12T11:16:10.683Z,20.51
2022-09-12T11:18:56.141Z,20.55
2022-09-12T11:21:53.889Z,20.56
2022-09-12T11:24:35.548Z,20.55
2022-09-12T11:27:08.166Z,20.51
2022-09-12T11:29:54.987Z,20.48
2022-09-12T11:32:47.586Z,20.52
2022-09-12T11:35:29.770Z,20.56
2022-09-12T11:38:26.604Z,20.52
2022-09-12T11:41:01.340Z,20.45
2022-09-12T11:43:49.522Z,20.37
2022-09-12T11:46:34.639Z,20.34
2022-09-12T11:49:04.162Z,20.36
2022-09-12T11:51:41.211Z,20.35
2022-09-12T11:54:28.692Z,20.32
2022-09-12T11:57:39.889Z,20.27
2022-09-12T12:00:24.654Z,20.27
2022-09-12T12:03:06.640Z,20.34
2022-09-12T12:05:54.438Z,20.38
2022-09-12T12:08:23.419Z,20.34
2022-09-12T12:10:56.530Z,20.29
2022-09-12T12:13:33.914Z,20.24
2022-09-12T12:16:05.750Z,20.19
2022-09-12T12:18:35.773Z,20.17
2022-09-12T12:21:37.954Z,20.17
2022-09-12T12:24:07.645Z,20.17
2022-09-12T12:26:43.498Z,20.17
2022-09-12T12:29:22.212Z,20.20
2022-09-12T12:32:04.015Z,20.26
2022-09-12T12:34:41.810Z,20.32
2022-09-12T12:37:20.560Z,20.32
2022-09-12T12:40:01.414Z,20.34
2022-09-12T12:42:34.376Z,20.35
2022-09-12T12:45:24.269Z,20.31
2022-09-12T12:47:55.065Z,20.26
2022-09-12T12:50:32.100Z,20.24
2022-09-12T12:53:05.052Z,20.24
2022-09-12T12:55:45.561Z,20.27
2022-09-12T12:58:26.734Z,20.29
2022-09-12T13:01:07.903Z,20.28
2022-09-12T13:03:34.885Z,20.28
2022-09-12T13:06:05.500Z,20.33
2022-09-12T13:08:35.486Z,20.41
2022-09-12T13:11:02.188Z,20.43
2022-09-12T13:14:01.607Z,20.42
2022-09-12T13:16:37.756Z,20.32
2022-09-12T13:19:18.005Z,20.26
2022-09-12T13:22:07.724Z,20.21
2022-09-12T13:24:43.807Z,20.21
2022-09-12T13:27:22.954Z,20.24
2022-09-12T13:29:50.373Z,20.21
2022-09-12T13:32:18.425Z,20.22
2022-09-12T13:35:14.065Z,20.20
2022-09-12T13:37:51.415Z,20.19
2022-09-12T13:40:33.890Z,20.11
2022-09-12T13:43:17.754Z,20.03
2022-09-12T13:45:46.761Z,19.98
2022-09-12T13:48:18.236Z,19.95
2022-09-12T13:50:54.927Z,19.93
2022-09-12T13:53:25.946Z,19.96
2022-09-12T13:56:03.869Z,19.95
2022-09-12T13:58:33.315Z,19.92
2022-09-12T14:01:20.610Z,19.85
2022-09-12T14:04:12.930Z,19.85
2022-09-12T14:06:51.759Z,19.82
2022-09-12T14:09:38.588Z,19.75
2022-09-12T14:12:25.262Z,19.73
2022-09-12T14:14:53.068Z,19.74
2022-09-12T14:17:30.458Z,19.76
2022-09-12T14:20:03.965Z,19.75
2022-09-12T14:22:32.567Z,19.69
2022-09-12T14:25:00.182Z,19.63
2022-09-12T14:27:43.165Z,19.61
2022-09-12T14:30:42.066Z,19.59
2022-09-12T14:33:12.854Z,19.57
2022-09-12T14:35:43.525Z,19.55
2022-09-12T14:38:18.373Z,19.56
2022-09-12T14:40:48.752Z,19.54
2022-09-12T14:43:26.738Z,19.58
2022-09-12T14:46:10.446Z,19.58
2022-09-12T14:48:50.582Z,19.58
2022-09-12T14:51:25.106Z,19.58
2022-09-12T14:53:51.793Z,19.60
2022-09-12T14:56:24.320Z,19.58
2022-09-12T14:59:28.439Z,19.59
2022-09-12T15:02:16.515Z,19.59
2022-09-12T15:05:00.463Z,19.58
2022-09-12T15:08:04.814Z,19.55
2022-09-12T15:10:37.073Z,19.48
2022-09-12T15:13:09.683Z,19.45
2022-09-12T15:15:41.420Z,19.40
2022-09-12T15:18:13.734Z,19.41
2022-09-12T15:20:45.460Z,19.41
2022-09-12T15:23:20.779Z,19.44
2022-09-12T15:25:47.606Z,19.45
2022-09-12T15:28:20.035Z,19.48
2022-09-12T15:30:50.130Z,19.49
2022-09-12T15:33:22.856Z,19.47
2022-09-12T15:35:50.353Z,19.43
2022-09-12T15:38:17.186Z,19.42
2022-09-12T15:40:43.821Z,19.39
2022-09-12T15:43:13.853Z,19.37
2022-09-12T15:45:49.899Z,19.31
2022-09-12T15:48:16.477Z,19.29
2022-09-12T15:50:43.187Z,19.29
2022-09-12T15:53:18.576Z,19.26
2022-09-12T15:55:45.777Z,19.21
2022-09-12T15:58:13.097Z,19.17
2022-09-12T16:00:39.714Z,19.13
2022-09-12T16:03:07.043Z,19.01
2022-09-12T16:05:34.407Z,18.92
2022-09-12T16:08:01.226Z,18.83
2022-09-12T16:10:30.418Z,18.77
2022-09-12T16:12:57.893Z,18.73
2022-09-12T16:15:25.873Z,18.68
2022-09-12T16:17:52.870Z,18.63
2022-09-12T16:20:20.870Z,18.59
2022-09-12T16:22:47.829Z,18.54
2022-09-12T16:25:14.588Z,18.47
2022-09-12T16:27:41.807Z,18.38
2022-09-12T16:30:09.648Z,18.33
2022-09-12T16:32:36.522Z,18.30
2022-09-12T16:35:03.396Z,18.26
2022-09-12T16:37:31.582Z,18.24
2022-09-12T16:39:58.367Z,18.18
2022-09-12T16:42:25.003Z,18.15
2022-09-12T16:44:52.003Z,18.09
2022-09-12T16:47:18.638Z,18.00
2022-09-12T16:49:45.255Z,17.96
2022-09-12T16:52:14.251Z,17.90
2022-09-12T16:54:40.899Z,17.83
2022-09-12T16:57:07.485Z,17.79
2022-09-12T16:59:34.118Z,17.69
2022-09-12T17:02:00.777Z,17.60
2022-09-12T17:04:27.554Z,17.52
2022-09-12T17:06:54.507Z,17.46
2022-09-12T17:09:22.077Z,17.41
2022-09-12T17:11:50.247Z,17.36
2022-09-12T17:14:16.946Z,17.25
2022-09-12T17:16:50.887Z,17.14
2022-09-12T17:19:33.059Z,17.08
2022-09-12T17:21:59.935Z,17.01
2022-09-12T17:24:26.796Z,16.97
2022-09-12T17:26:53.772Z,16.91
2022-09-12T17:29:20.781Z,16.82
2022-09-12T17:31:47.658Z,16.76
2022-09-12T17:34:15.244Z,16.69
2022-09-12T17:36:44.598Z,16.62
2022-09-12T17:39:12.932Z,16.57
2022-09-12T17:41:41.857Z,16.54
2022-09-12T17:44:11.730Z,16.49
2022-09-12T17:46:38.789Z,16.46
2022-09-12T17:49:20.967Z,16.40
2022-09-12T17:51:48.659Z,16.35
2022-09-12T17:54:18.852Z,16.29
2022-09-12T17:56:49.909Z,16.27
2022-09-12T17:59:21.727Z,16.23
2022-09-12T18:02:07.052Z,16.17
2022-09-12T18:04:37.506Z,16.14
2022-09-12T18:07:04.366Z,16.06
2022-09-12T18:09:31.035Z,16.02
2022-09-12T18:11:58.524Z,15.97
2022-09-12T18:14:27.699Z,15.93
2022-09-12T18:16:57.116Z,15.90
2022-09-12T18:19:24.313Z,15.86
2022-09-12T18:21:51.049Z,15.83
2022-09-12T18:24:18.469Z,15.80
2022-09-12T18:26:45.390Z,15.76
2022-09-12T18:29:13.247Z,15.72
2022-09-12T18:31:39.897Z,15.68
2022-09-12T18:34:07.886Z,15.62
2022-09-12T18:36:34.506Z,15.56
2022-09-12T18:39:01.144Z,15.52
2022-09-12T18:41:29.038Z,15.51
2022-09-12T18:44:00.847Z,15.48
2022-09-12T18:46:29.695Z,15.42
2022-09-12T18:49:00.279Z,15.35
2022-09-12T18:51:33.682Z,15.29
2022-09-12T18:54:03.462Z,15.22
2022-09-12T18:56:35.083Z,15.18
2022-09-12T18:59:04.260Z,15.14
2022-09-12T19:01:37.761Z,15.07
2022-09-12T19:04:06.258Z,15.00
2022-09-12T19:06:36.511Z,14.96
2022-09-12T19:09:07.787Z,14.92
2022-09-12T19:11:39.558Z,14.89
2022-09-12T19:14:07.658Z,14.86
2022-09-12T19:16:34.834Z,14.84
2022-09-12T19:19:02.687Z,14.79
2022-09-12T19:21:31.140Z,14.75
2022-09-12T19:24:01.074Z,14.72
2022-09-12T19:26:27.929Z,14.67
2022-09-12T19:28:56.117Z,14.62
2022-09-12T19:31:24.408Z,14.60
2022-09-12T19:33:54.659Z,14.58
2022-09-12T19:36:43.692Z,14.55
2022-09-12T19:39:09.559Z,14.50
2022-09-12T19:41:36.520Z,14.45
2022-09-12T19:44:04.507Z,14.40
2022-09-12T19:46:31.361Z,14.35
2022-09-12T19:48:58.058Z,14.34
2022-09-12T19:51:24.711Z,14.34
2022-09-12T19:53:52.150Z,14.32
2022-09-12T19:56:19.266Z,14.31
2022-09-12T19:58:50.901Z,14.32
2022-09-12T20:01:25.023Z,14.33
2022-09-12T20:03:54.951Z,14.31
2022-09-12T20:06:21.782Z,14.29
2022-09-12T20:08:48.555Z,14.25
2022-09-12T20:11:17.943Z,14.22
2022-09-12T20:13:45.744Z,14.24
2022-09-12T20:16:33.548Z,14.25
2022-09-12T20:19:07.090Z,14.25
2022-09-12T20:21:36.114Z,14.22
2022-09-12T20:24:03.056Z,14.19
2022-09-12T20:26:30.189Z,14.18
2022-09-12T20:28:56.927Z,14.17
2022-09-12T20:31:24.519Z,14.18
2022-09-12T20:33:52.141Z,14.17
2022-09-12T20:36:20.872Z,14.15
2022-09-12T20:38:50.394Z,14.13
2022-09-12T20:41:17.849Z,14.12
2022-09-12T20:43:44.495Z,14.11
2022-09-12T20:46:11.528Z,14.09
2022-09-12T20:48:39.052Z,14.09
2022-09-12T20:51:06.581Z,14.11
2022-09-12T20:53:35.258Z,14.12
2022-09-12T20:56:03.182Z,14.14
2022-09-12T20:58:29.862Z,14.15
2022-09-12T21:00:56.940Z,14.17
2022-09-12T21:03:23.603Z,14.20
2022-09-12T21:05:50.187Z,14.22
2022-09-12T21:08:17.204Z,14.19
2022-09-12T21:10:44.570Z,14.20
2022-09-12T21:13:12.202Z,14.19
2022-09-12T21:15:40.207Z,14.17
2022-09-12T21:18:07.544Z,14.16
2022-09-12T21:20:34.504Z,14.15
2022-09-12T21:23:01.190Z,14.14
2022-09-12T21:25:29.130Z,14.13
2022-09-12T21:27:55.758Z,14.07
2022-09-12T21:30:22.465Z,14.03
2022-09-12T21:32:49.178Z,14.00
2022-09-12T21:35:16.040Z,13.98
2022-09-12T21:37:42.670Z,14.00
2022-09-12T21:40:09.622Z,13.98
2022-09-12T21:42:36.270Z,13.98
2022-09-12T21:45:02.989Z,13.94
2022-09-12T21:47:29.571Z,13.92
2022-09-12T21:49:56.197Z,13.92
2022-09-12T21:52:22.899Z,13.85
2022-09-12T21:54:49.482Z,13.80
2022-09-12T21:57:16.091Z,13.74
2022-09-12T21:59:42.822Z,13.71
2022-09-12T22:02:10.934Z,13.66
2022-09-12T22:04:37.630Z,13.60
2022-09-12T22:07:05.498Z,13.56
2022-09-12T22:09:32.901Z,13.52
2022-09-12T22:11:59.498Z,13.48
2022-09-12T22:14:26.248Z,13.46
2022-09-12T22:16:54.983Z,13.45
2022-09-12T22:19:24.513Z,13.41
2022-09-12T22:22:25.068Z,13.36
2022-09-12T22:25:01.141Z,13.29
2022-09-12T22:27:27.966Z,13.24
2022-09-12T22:29:57.026Z,13.22
2022-09-12T22:32:26.365Z,13.20
2022-09-12T22:34:53.081Z,13.18
2022-09-12T22:37:20.869Z,13.18
2022-09-12T22:39:50.555Z,13.15
2022-09-12T22:42:21.398Z,13.14
2022-09-12T22:44:48.007Z,13.12
2022-09-12T22:47:15.859Z,13.10
2022-09-12T22:49:42.495Z,13.07
2022-09-12T22:52:09.093Z,13.07
2022-09-12T22:54:38.580Z,13.04
2022-09-12T22:57:05.333Z,13.01
2022-09-12T22:59:31.930Z,13.00
2022-09-12T23:01:58.605Z,12.96
2022-09-12T23:04:27.990Z,12.93
2022-09-12T23:06:58.260Z,12.91
2022-09-12T23:09:24.970Z,12.90
2022-09-12T23:11:55.578Z,12.89
2022-09-12T23:14:22.166Z,12.90
2022-09-12T23:16:51.755Z,12.92
2022-09-12T23:19:18.430Z,12.93
2022-09-12T23:21:49.305Z,12.97
2022-09-12T23:24:18.381Z,12.99
2022-09-12T23:26:45.062Z,12.99
2022-09-12T23:29:14.725Z,13.01
2022-09-12T23:31:41.723Z,13.02
2022-09-12T23:34:11.144Z,13.02
2022-09-12T23:36:37.757Z,13.04
2022-09-12T23:39:07.204Z,13.06
2022-09-12T23:41:33.851Z,13.05
2022-09-12T23:44:05.325Z,13.06
2022-09-12T23:46:34.267Z,13.05
2022-09-12T23:49:00.868Z,13.04
2022-09-12T23:51:30.294Z,13.01
2022-09-12T23:53:57.387Z,13.00
2022-09-12T23:56:27.044Z,13.01
2022-09-12T23:58:53.719Z,13.03
